Terminal Aerodrome Forecast
Issued by NWS

Home | Current Version | Previous Version | Text Only | Print | Product List | Glossary On
Versions: 1 2 3 4 5 6 7 8 9 10 11 12 13 14 15
000
FTUS43 KMPX 200805 AAA
TAFAXN
TAF AMD
KAXN 200805Z 2008/2106 20005KT P6SM FEW200
     FM201300 16008KT P6SM SCT200
     FM202200 16006KT P6SM BKN150=

USA.gov is the U.S. government's official web portal to all federal, state and local government web resources and services.